createdAt,value
2022-12-13T00:00:30.628Z,17.00
2022-12-13T00:03:14.210Z,16.00
2022-12-13T00:05:44.000Z,16.30
2022-12-13T00:08:07.854Z,15.10
2022-12-13T00:10:31.528Z,17.90
2022-12-13T00:12:54.939Z,16.90
2022-12-13T00:15:18.615Z,15.20
2022-12-13T00:17:42.449Z,19.00
2022-12-13T00:20:07.380Z,15.30
2022-12-13T00:22:31.058Z,16.10
2022-12-13T00:24:55.890Z,14.90
2022-12-13T00:27:19.314Z,14.60
2022-12-13T00:29:43.684Z,14.20
2022-12-13T00:32:07.346Z,14.40
2022-12-13T00:34:31.080Z,12.40
2022-12-13T00:36:55.193Z,16.00
2022-12-13T00:39:19.068Z,12.60
2022-12-13T00:41:44.152Z,12.20
2022-12-13T00:44:08.149Z,14.70
2022-12-13T00:46:32.048Z,16.20
2022-12-13T00:48:57.831Z,15.10
2022-12-13T00:51:22.346Z,16.50
2022-12-13T00:53:46.093Z,12.70
2022-12-13T00:56:13.161Z,14.80
2022-12-13T00:58:36.609Z,15.90
2022-12-13T01:01:09.012Z,13.50
2022-12-13T01:03:32.733Z,13.30
2022-12-13T01:08:40.077Z,13.40
2022-12-13T01:11:04.482Z,14.30
2022-12-13T01:13:27.899Z,15.20
2022-12-13T01:15:51.624Z,14.10
2022-12-13T01:18:17.976Z,14.70
2022-12-13T01:20:41.390Z,16.20
2022-12-13T01:23:05.564Z,14.30
2022-12-13T01:25:29.443Z,13.40
2022-12-13T01:27:52.848Z,12.80
2022-12-13T01:30:16.396Z,10.90
2022-12-13T01:32:39.846Z,14.30
2022-12-13T01:35:03.377Z,15.00
2022-12-13T01:37:27.555Z,13.50
2022-12-13T01:39:51.085Z,13.80
2022-12-13T01:42:15.377Z,12.90
2022-12-13T01:45:20.661Z,14.80
2022-12-13T01:47:48.217Z,17.00
2022-12-13T01:50:16.829Z,14.30
2022-12-13T01:52:42.515Z,16.90
2022-12-13T01:55:09.043Z,15.90
2022-12-13T01:57:34.198Z,11.80
2022-12-13T01:59:58.041Z,12.50
2022-12-13T02:02:22.720Z,14.30
2022-12-13T02:04:54.505Z,15.20
2022-12-13T02:07:23.091Z,14.40
2022-12-13T02:09:48.421Z,15.90
2022-12-13T02:12:20.845Z,16.60
2022-12-13T02:14:44.850Z,15.20
2022-12-13T02:17:19.178Z,17.50
2022-12-13T02:20:21.424Z,14.60
2022-12-13T02:23:06.883Z,15.80
2022-12-13T02:26:03.522Z,14.30
2022-12-13T02:28:42.979Z,12.60
2022-12-13T02:31:11.906Z,13.70
2022-12-13T02:33:50.166Z,15.80
2022-12-13T02:36:19.300Z,15.30
2022-12-13T02:38:52.020Z,12.70
2022-12-13T02:41:22.456Z,13.60
2022-12-13T02:43:52.927Z,13.70
2022-12-13T02:46:29.732Z,11.20
2022-12-13T02:48:56.807Z,12.20
2022-12-13T02:51:22.259Z,13.20
2022-12-13T02:53:46.071Z,10.90
2022-12-13T02:56:09.651Z,15.90
2022-12-13T02:58:35.705Z,14.40
2022-12-13T03:04:01.532Z,15.70
2022-12-13T03:06:35.085Z,16.00
2022-12-13T03:09:10.500Z,13.60
2022-12-13T03:12:01.122Z,16.50
2022-12-13T03:14:30.532Z,15.70
2022-12-13T03:16:55.716Z,13.50
2022-12-13T03:19:19.545Z,17.10
2022-12-13T03:21:48.069Z,14.80
2022-12-13T03:24:13.199Z,14.80
2022-12-13T03:26:38.497Z,14.10
2022-12-13T03:29:01.959Z,15.70
2022-12-13T03:31:25.609Z,12.90
2022-12-13T03:33:49.031Z,17.70
2022-12-13T03:36:13.561Z,13.80
2022-12-13T03:38:39.389Z,15.80
2022-12-13T03:41:05.607Z,15.80
2022-12-13T03:43:29.764Z,15.50
2022-12-13T03:45:54.354Z,19.20
2022-12-13T03:48:22.620Z,21.70
2022-12-13T03:50:47.552Z,18.40
2022-12-13T03:53:22.277Z,17.50
2022-12-13T03:55:54.644Z,17.10
2022-12-13T03:58:18.407Z,19.30
2022-12-13T04:00:41.961Z,21.00
2022-12-13T04:03:05.604Z,18.70
2022-12-13T04:05:29.953Z,17.60
2022-12-13T04:07:53.582Z,20.40
2022-12-13T04:10:25.462Z,17.30
2022-12-13T04:13:08.140Z,20.00
2022-12-13T04:15:31.878Z,16.80
2022-12-13T04:17:55.525Z,19.40
2022-12-13T04:20:18.959Z,20.20
2022-12-13T04:22:42.808Z,21.80
2022-12-13T04:25:07.352Z,18.60
2022-12-13T04:27:30.787Z,21.10
2022-12-13T04:29:54.166Z,22.70
2022-12-13T04:32:26.108Z,22.40
2022-12-13T04:34:50.854Z,20.70
2022-12-13T04:37:14.373Z,20.80
2022-12-13T04:39:37.861Z,24.30
2022-12-13T04:42:01.659Z,22.80
2022-12-13T04:44:31.449Z,21.30
2022-12-13T04:47:01.157Z,18.90
2022-12-13T04:49:25.075Z,21.30
2022-12-13T04:51:48.569Z,22.50
2022-12-13T04:54:23.606Z,24.40
2022-12-13T04:56:48.305Z,22.60
2022-12-13T04:59:11.868Z,20.30
2022-12-13T05:01:35.984Z,23.80
2022-12-13T05:04:01.577Z,23.70
2022-12-13T05:06:26.610Z,22.50
2022-12-13T05:11:14.635Z,23.70
2022-12-13T05:13:38.772Z,24.20
2022-12-13T05:16:06.329Z,21.30
2022-12-13T05:18:30.731Z,20.40
2022-12-13T05:20:54.971Z,21.20
2022-12-13T05:23:22.616Z,20.70
2022-12-13T05:25:47.040Z,19.50
2022-12-13T05:28:27.625Z,21.40
2022-12-13T05:30:53.031Z,20.80
2022-12-13T05:33:17.896Z,20.50
2022-12-13T05:35:42.833Z,22.20
2022-12-13T05:38:06.508Z,21.90
2022-12-13T05:40:31.578Z,18.90
2022-12-13T05:43:00.934Z,20.40
2022-12-13T05:45:26.045Z,18.40
2022-12-13T05:47:49.558Z,18.60
2022-12-13T05:50:14.576Z,17.70
2022-12-13T05:52:38.155Z,17.90
2022-12-13T05:55:02.067Z,19.90
2022-12-13T05:57:25.593Z,20.00
2022-12-13T05:59:49.252Z,20.30
2022-12-13T06:02:16.896Z,19.80
2022-12-13T06:04:45.023Z,17.00
2022-12-13T06:07:08.548Z,19.90
2022-12-13T06:09:32.651Z,16.20
2022-12-13T06:12:03.547Z,17.50
2022-12-13T06:14:36.499Z,14.40
2022-12-13T06:17:00.193Z,16.30
2022-12-13T06:19:24.786Z,14.60
2022-12-13T06:21:48.278Z,16.70
2022-12-13T06:24:11.757Z,16.70
2022-12-13T06:26:35.211Z,16.90
2022-12-13T06:28:58.644Z,17.30
2022-12-13T06:31:22.174Z,13.80
2022-12-13T06:33:45.737Z,13.40
2022-12-13T06:36:10.796Z,16.60
2022-12-13T06:38:34.253Z,16.20
2022-12-13T06:41:09.094Z,17.10
2022-12-13T06:43:32.812Z,15.40
2022-12-13T06:45:56.327Z,13.00
2022-12-13T06:48:20.391Z,16.20
2022-12-13T06:50:44.217Z,13.70
2022-12-13T06:53:07.725Z,14.80
2022-12-13T06:55:31.183Z,13.90
2022-12-13T06:57:56.493Z,14.60
2022-12-13T07:00:22.337Z,15.10
2022-12-13T07:02:53.294Z,13.60
2022-12-13T07:05:17.643Z,14.90
2022-12-13T07:07:41.059Z,12.80
2022-12-13T07:10:05.855Z,14.20
2022-12-13T07:12:36.462Z,13.60
2022-12-13T07:14:59.877Z,13.80
2022-12-13T07:17:32.641Z,14.20
2022-12-13T07:19:58.167Z,12.80
2022-12-13T07:22:24.737Z,18.10
2022-12-13T07:24:48.391Z,13.90
2022-12-13T07:27:12.138Z,13.60
2022-12-13T07:29:35.569Z,12.80
2022-12-13T07:32:01.405Z,13.20
2022-12-13T07:34:25.612Z,13.60
2022-12-13T07:36:50.779Z,13.70
2022-12-13T07:39:14.214Z,13.70
2022-12-13T07:41:37.817Z,12.30
2022-12-13T07:44:03.187Z,14.90
2022-12-13T07:46:32.332Z,14.50
2022-12-13T07:49:01.736Z,16.60
2022-12-13T07:51:26.738Z,12.40
2022-12-13T07:53:50.219Z,13.20
2022-12-13T07:56:14.193Z,14.80
2022-12-13T07:58:37.971Z,15.20
2022-12-13T08:01:05.273Z,14.20
2022-12-13T08:03:29.672Z,12.80
2022-12-13T08:06:00.989Z,13.80
2022-12-13T08:08:30.847Z,13.80
2022-12-13T08:10:55.405Z,14.20
2022-12-13T08:13:25.034Z,14.80
2022-12-13T08:15:48.467Z,17.00
2022-12-13T08:18:13.059Z,17.30
2022-12-13T08:20:37.062Z,18.50
2022-12-13T08:23:02.171Z,17.40
2022-12-13T08:25:26.738Z,13.60
2022-12-13T08:27:50.533Z,13.90
2022-12-13T08:30:20.484Z,14.10
2022-12-13T08:32:48.852Z,14.00
2022-12-13T08:37:35.934Z,16.80
2022-12-13T08:39:59.656Z,18.70
2022-12-13T08:42:24.636Z,20.80
2022-12-13T08:44:50.279Z,23.00
2022-12-13T08:47:23.291Z,20.50
2022-12-13T08:49:48.507Z,16.70
2022-12-13T08:52:11.953Z,14.00
2022-12-13T08:54:35.427Z,15.20
2022-12-13T08:56:59.437Z,15.60
2022-12-13T08:59:24.753Z,14.40
2022-12-13T09:01:48.320Z,14.70
2022-12-13T09:04:17.750Z,14.10
2022-12-13T09:06:55.461Z,13.50
2022-12-13T09:09:19.590Z,17.80
2022-12-13T09:11:43.039Z,14.80
2022-12-13T09:14:06.922Z,14.60
2022-12-13T09:16:37.700Z,16.80
2022-12-13T09:19:06.544Z,12.50
2022-12-13T09:21:45.541Z,13.70
2022-12-13T09:24:23.634Z,11.10
2022-12-13T09:26:48.272Z,14.90
2022-12-13T09:29:20.928Z,14.90
2022-12-13T09:31:49.544Z,15.80
2022-12-13T09:34:16.503Z,16.10
2022-12-13T09:36:40.251Z,13.30
2022-12-13T09:39:04.649Z,13.50
2022-12-13T09:41:32.479Z,13.70
2022-12-13T09:44:01.287Z,13.20
2022-12-13T09:46:34.971Z,13.70
2022-12-13T09:49:23.157Z,16.90
2022-12-13T09:52:04.296Z,14.70
2022-12-13T09:54:34.186Z,16.00
2022-12-13T09:56:58.259Z,15.60
2022-12-13T09:59:27.055Z,16.80
2022-12-13T10:01:50.807Z,15.30
2022-12-13T10:04:18.520Z,15.10
2022-12-13T10:06:42.033Z,15.00
2022-12-13T10:09:10.963Z,16.90
2022-12-13T10:11:34.674Z,14.60
2022-12-13T10:14:02.401Z,12.70
2022-12-13T10:16:36.137Z,14.10
2022-12-13T10:19:02.349Z,14.60
2022-12-13T10:21:32.043Z,13.10
2022-12-13T10:26:40.754Z,16.30
2022-12-13T10:29:06.941Z,15.90
2022-12-13T10:31:38.542Z,15.60
2022-12-13T10:34:02.231Z,16.70
2022-12-13T10:36:34.445Z,17.90
2022-12-13T10:38:58.505Z,18.20
2022-12-13T10:41:31.671Z,18.10
2022-12-13T10:44:20.284Z,20.70
2022-12-13T10:46:50.403Z,16.00
2022-12-13T10:49:19.462Z,15.60
2022-12-13T10:51:43.234Z,13.90
2022-12-13T10:54:16.127Z,16.00
2022-12-13T10:56:46.228Z,16.90
2022-12-13T10:59:17.312Z,15.50
2022-12-13T11:01:41.396Z,15.30
2022-12-13T11:04:27.152Z,17.80
2022-12-13T11:06:52.064Z,17.50
2022-12-13T11:09:23.150Z,16.50
2022-12-13T11:11:51.809Z,18.60
2022-12-13T11:14:31.585Z,18.60
2022-12-13T11:16:59.210Z,15.50
2022-12-13T11:19:29.655Z,17.60
2022-12-13T11:21:54.084Z,14.60
2022-12-13T11:24:23.809Z,20.30
2022-12-13T11:26:54.128Z,19.10
2022-12-13T11:29:48.322Z,18.60
2022-12-13T11:32:23.170Z,17.30
2022-12-13T11:34:56.689Z,17.20
2022-12-13T11:37:28.505Z,16.30
2022-12-13T11:40:01.816Z,16.80
2022-12-13T11:42:29.438Z,17.30
2022-12-13T11:45:00.403Z,17.70
2022-12-13T11:47:31.589Z,18.70
2022-12-13T11:49:58.889Z,16.90
2022-12-13T11:52:27.710Z,17.70
2022-12-13T11:54:58.493Z,18.70
2022-12-13T11:57:37.602Z,18.50
2022-12-13T12:00:15.988Z,18.30
2022-12-13T12:03:06.415Z,13.90
2022-12-13T12:05:34.590Z,18.60
2022-12-13T12:08:32.359Z,21.50
2022-12-13T12:10:51.075Z,21.00
2022-12-13T12:13:19.456Z,16.70
2022-12-13T12:15:50.082Z,17.50
2022-12-13T12:18:19.007Z,18.50
2022-12-13T12:20:56.356Z,17.60
2022-12-13T12:23:30.481Z,16.70
2022-12-13T12:26:05.985Z,18.30
2022-12-13T12:28:44.118Z,21.00
2022-12-13T12:31:15.614Z,21.90
2022-12-13T12:33:51.929Z,20.20
2022-12-13T12:36:32.021Z,21.30
2022-12-13T12:39:26.467Z,18.10
2022-12-13T12:42:03.241Z,22.90
2022-12-13T12:50:22.918Z,19.00
2022-12-13T12:52:58.871Z,19.30
2022-12-13T12:55:41.732Z,22.00
2022-12-13T12:58:15.310Z,20.60
2022-12-13T13:00:48.150Z,20.30
2022-12-13T13:03:23.035Z,21.80
2022-12-13T13:05:55.831Z,22.80
2022-12-13T13:08:29.667Z,22.50
2022-12-13T13:10:55.259Z,20.30
2022-12-13T13:13:46.240Z,19.40
2022-12-13T13:16:30.624Z,20.70
2022-12-13T13:18:55.231Z,22.20
2022-12-13T13:21:46.667Z,17.40
2022-12-13T13:24:17.897Z,18.10
2022-12-13T13:26:43.144Z,21.20
2022-12-13T13:29:34.909Z,18.30
2022-12-13T13:32:02.159Z,16.70
2022-12-13T13:34:30.828Z,21.50
2022-12-13T13:36:56.468Z,18.50
2022-12-13T13:39:38.669Z,20.70
2022-12-13T13:42:17.927Z,19.80
2022-12-13T13:45:00.264Z,16.30
2022-12-13T13:47:48.152Z,20.90
2022-12-13T13:50:46.614Z,18.10
2022-12-13T13:53:55.261Z,21.10
2022-12-13T13:56:43.703Z,22.20
2022-12-13T13:59:42.261Z,20.00
2022-12-13T14:02:35.138Z,18.70
2022-12-13T14:05:31.285Z,21.40
2022-12-13T14:08:20.084Z,24.30
2022-12-13T14:11:17.274Z,23.80
2022-12-13T14:14:21.812Z,26.60
2022-12-13T14:17:38.780Z,24.10
2022-12-13T14:20:39.478Z,20.10
2022-12-13T14:23:10.650Z,24.10
2022-12-13T14:25:58.399Z,22.30
2022-12-13T14:28:43.699Z,23.30
2022-12-13T14:31:21.455Z,22.70
2022-12-13T14:33:47.459Z,24.10
2022-12-13T14:36:16.454Z,24.60
2022-12-13T14:38:39.933Z,26.60
2022-12-13T14:41:05.439Z,21.60
2022-12-13T14:43:30.459Z,23.20
2022-12-13T14:45:57.304Z,23.30
2022-12-13T14:48:28.080Z,25.70
2022-12-13T14:50:53.881Z,25.90
2022-12-13T14:53:25.593Z,26.70
2022-12-13T14:56:05.768Z,22.10
2022-12-13T14:58:29.507Z,28.20
2022-12-13T15:00:56.101Z,26.60
2022-12-13T15:03:24.715Z,27.60
2022-12-13T15:05:54.353Z,28.70
2022-12-13T15:08:19.324Z,29.80
2022-12-13T15:10:48.311Z,29.70
2022-12-13T15:13:25.486Z,29.40
2022-12-13T15:15:56.331Z,32.20
2022-12-13T15:18:23.223Z,32.00
2022-12-13T15:20:50.128Z,28.30
2022-12-13T15:23:48.858Z,29.20
2022-12-13T15:26:28.350Z,33.00
2022-12-13T15:28:56.036Z,28.60
2022-12-13T15:33:48.577Z,33.50
2022-12-13T15:36:16.945Z,32.60
2022-12-13T15:38:46.343Z,34.70
2022-12-13T15:41:17.670Z,36.70
2022-12-13T15:43:47.240Z,34.20
2022-12-13T15:46:11.127Z,37.50
2022-12-13T15:48:37.819Z,36.00
2022-12-13T15:51:10.708Z,30.90
2022-12-13T15:53:35.083Z,32.20
2022-12-13T15:55:59.656Z,29.60
2022-12-13T15:58:26.962Z,33.30
2022-12-13T16:00:50.794Z,30.20
2022-12-13T16:03:19.056Z,35.80
2022-12-13T16:05:50.312Z,32.80
2022-12-13T16:08:25.669Z,33.70
2022-12-13T16:10:52.320Z,29.80
2022-12-13T16:13:26.073Z,30.70
2022-12-13T16:15:51.617Z,30.60
2022-12-13T16:18:26.910Z,32.10
2022-12-13T16:20:50.503Z,32.50
2022-12-13T16:23:21.239Z,31.30
2022-12-13T16:25:51.758Z,32.00
2022-12-13T16:28:16.719Z,28.00
2022-12-13T16:31:15.612Z,31.10
2022-12-13T16:33:39.226Z,33.30
2022-12-13T16:36:03.040Z,29.80
2022-12-13T16:38:27.546Z,30.30
2022-12-13T16:40:55.705Z,33.70
2022-12-13T16:43:25.385Z,33.60
2022-12-13T16:45:53.896Z,32.60
2022-12-13T16:50:44.640Z,33.80
2022-12-13T16:53:11.643Z,34.40
2022-12-13T16:55:38.406Z,35.70
2022-12-13T16:58:03.733Z,32.70
2022-12-13T17:00:29.081Z,32.90
2022-12-13T17:02:52.618Z,33.00
2022-12-13T17:05:16.944Z,31.10
2022-12-13T17:07:40.382Z,36.10
2022-12-13T17:10:05.504Z,35.50
2022-12-13T17:12:29.098Z,34.80
2022-12-13T17:14:53.736Z,34.10
2022-12-13T17:17:17.877Z,34.80
2022-12-13T17:19:41.652Z,34.70
2022-12-13T17:22:05.394Z,34.50
2022-12-13T17:24:30.829Z,37.80
2022-12-13T17:26:56.157Z,37.30
2022-12-13T17:29:19.922Z,27.30
2022-12-13T17:31:44.185Z,43.00
2022-12-13T17:34:07.690Z,41.80
2022-12-13T17:36:31.807Z,39.10
2022-12-13T17:38:55.361Z,41.10
2022-12-13T17:41:19.091Z,39.00
2022-12-13T17:43:43.736Z,44.40
2022-12-13T17:46:11.253Z,47.10
2022-12-13T17:48:40.231Z,39.30
2022-12-13T17:51:05.854Z,39.70
2022-12-13T17:53:29.712Z,38.50
2022-12-13T17:55:58.067Z,39.30
2022-12-13T17:58:21.764Z,38.30
2022-12-13T18:00:45.214Z,38.90
2022-12-13T18:03:08.689Z,39.60
2022-12-13T18:05:33.263Z,39.90
2022-12-13T18:07:56.763Z,40.10
2022-12-13T18:10:23.598Z,37.80
2022-12-13T18:12:49.879Z,39.70
2022-12-13T18:15:13.476Z,41.20
2022-12-13T18:18:09.608Z,41.80
2022-12-13T18:20:20.721Z,40.60
2022-12-13T18:22:48.336Z,40.00
2022-12-13T18:25:14.940Z,42.70
2022-12-13T18:27:38.426Z,40.00
2022-12-13T18:30:02.243Z,42.70
2022-12-13T18:32:25.721Z,40.60
2022-12-13T18:34:49.186Z,44.50
2022-12-13T18:37:18.343Z,45.90
2022-12-13T18:39:41.916Z,46.40
2022-12-13T18:42:18.334Z,44.10
2022-12-13T18:44:41.802Z,43.10
2022-12-13T18:47:20.998Z,47.10
2022-12-13T18:49:55.470Z,44.50
2022-12-13T18:52:20.227Z,50.10
2022-12-13T18:54:45.387Z,46.10
2022-12-13T18:57:19.605Z,45.00
2022-12-13T18:59:43.062Z,45.00
2022-12-13T19:02:18.286Z,42.70
2022-12-13T19:04:42.574Z,43.20
2022-12-13T19:07:19.673Z,46.00
2022-12-13T19:09:43.548Z,44.30
2022-12-13T19:12:18.064Z,44.40
2022-12-13T19:14:41.534Z,49.30
2022-12-13T19:17:05.560Z,53.80
2022-12-13T19:19:29.271Z,51.00
2022-12-13T19:21:52.811Z,44.20
2022-12-13T19:24:17.640Z,52.40
2022-12-13T19:26:41.257Z,54.50
2022-12-13T19:29:04.933Z,51.00
2022-12-13T19:31:32.282Z,52.50
2022-12-13T19:33:57.927Z,53.50
2022-12-13T19:36:21.594Z,58.40
2022-12-13T19:38:46.549Z,55.90
2022-12-13T19:41:12.830Z,56.80
2022-12-13T19:43:36.819Z,58.20
2022-12-13T19:46:02.653Z,57.60
2022-12-13T19:48:26.116Z,59.70
2022-12-13T19:50:49.576Z,56.70
2022-12-13T19:53:13.692Z,55.10
2022-12-13T19:55:41.649Z,60.20
2022-12-13T19:58:05.097Z,60.90
2022-12-13T20:00:29.022Z,59.30
2022-12-13T20:02:52.599Z,57.40
2022-12-13T20:05:16.485Z,61.60
2022-12-13T20:07:40.640Z,65.30
2022-12-13T20:10:04.757Z,58.40
2022-12-13T20:12:29.179Z,58.30
2022-12-13T20:14:52.934Z,64.00
2022-12-13T20:17:16.431Z,58.40
2022-12-13T20:19:40.087Z,57.40
2022-12-13T20:22:05.050Z,57.70
2022-12-13T20:24:28.690Z,59.90
2022-12-13T20:26:52.184Z,64.00
2022-12-13T20:29:15.993Z,64.40
2022-12-13T20:31:40.419Z,59.50
2022-12-13T20:34:06.070Z,63.00
2022-12-13T20:36:30.829Z,63.50
2022-12-13T20:38:55.784Z,68.70
2022-12-13T20:41:19.702Z,65.60
2022-12-13T20:43:44.085Z,61.20
2022-12-13T20:46:14.468Z,56.60
2022-12-13T20:48:39.227Z,61.60
2022-12-13T20:51:04.930Z,60.50
2022-12-13T20:53:31.402Z,61.00
2022-12-13T20:55:57.437Z,59.50
2022-12-13T20:58:21.149Z,60.70
2022-12-13T21:00:44.633Z,63.30
2022-12-13T21:03:08.171Z,61.30
2022-12-13T21:05:32.259Z,56.80
2022-12-13T21:08:14.369Z,62.50
2022-12-13T21:10:39.663Z,59.00
2022-12-13T21:13:03.347Z,64.70
2022-12-13T21:15:26.806Z,62.00
2022-12-13T21:17:50.228Z,61.60
2022-12-13T21:20:13.735Z,65.70
2022-12-13T21:22:37.317Z,61.90
2022-12-13T21:25:01.016Z,63.30
2022-12-13T21:27:24.790Z,64.80
2022-12-13T21:29:48.261Z,65.30
2022-12-13T21:32:11.907Z,60.50
2022-12-13T21:34:37.080Z,62.80
2022-12-13T21:37:00.487Z,55.10
2022-12-13T21:39:27.214Z,59.60
2022-12-13T21:41:50.746Z,61.40
2022-12-13T21:44:15.776Z,59.10
2022-12-13T21:49:23.126Z,54.40
2022-12-13T21:51:48.393Z,63.60
2022-12-13T21:54:12.333Z,54.70
2022-12-13T21:56:54.470Z,58.10
2022-12-13T21:59:21.397Z,58.10
2022-12-13T22:02:08.769Z,63.50
2022-12-13T22:04:33.702Z,61.40
2022-12-13T22:06:57.305Z,66.00
2022-12-13T22:09:20.938Z,63.40
2022-12-13T22:11:44.344Z,58.60
2022-12-13T22:14:07.786Z,61.80
2022-12-13T22:16:31.454Z,58.60
2022-12-13T22:18:55.699Z,61.90
2022-12-13T22:21:19.225Z,57.80
2022-12-13T22:23:42.774Z,60.10
2022-12-13T22:26:07.636Z,57.70
2022-12-13T22:28:31.549Z,50.50
2022-12-13T22:30:55.124Z,64.20
2022-12-13T22:33:18.562Z,58.20
2022-12-13T22:35:42.058Z,55.10
2022-12-13T22:38:05.516Z,59.60
2022-12-13T22:40:28.984Z,58.70
2022-12-13T22:42:52.448Z,62.00
2022-12-13T22:45:16.860Z,65.80
2022-12-13T22:47:40.358Z,62.90
2022-12-13T22:50:06.093Z,60.00
2022-12-13T22:52:33.798Z,67.90
2022-12-13T22:54:58.308Z,63.80
2022-12-13T22:57:21.700Z,65.30
2022-12-13T22:59:45.150Z,64.80
2022-12-13T23:02:09.172Z,67.00
2022-12-13T23:04:33.558Z,69.30
2022-12-13T23:06:57.065Z,66.40
2022-12-13T23:09:21.456Z,63.40
2022-12-13T23:12:03.300Z,57.10
2022-12-13T23:14:28.636Z,59.50
2022-12-13T23:16:52.544Z,65.80
2022-12-13T23:19:40.919Z,67.80
2022-12-13T23:22:00.902Z,64.90
2022-12-13T23:24:25.002Z,64.60
2022-12-13T23:26:48.667Z,66.10
2022-12-13T23:29:12.829Z,70.90
2022-12-13T23:31:38.449Z,71.80
2022-12-13T23:34:02.498Z,70.00
2022-12-13T23:36:27.124Z,62.60
2022-12-13T23:38:51.552Z,67.10
2022-12-13T23:41:23.320Z,62.00
2022-12-13T23:43:48.614Z,62.40
2022-12-13T23:46:15.258Z,60.80
2022-12-13T23:48:39.240Z,61.90
2022-12-13T23:51:04.216Z,62.40
2022-12-13T23:53:29.115Z,61.70
2022-12-13T23:55:52.851Z,65.70
2022-12-13T23:58:17.619Z,70.70
